Terminal Aerodrome Forecast
Issued by NWS Charleston, WV

Current Version | Previous Version | Graphics & Text | Print | Product List | Glossary On
Versions: 1 2 3 4 5 6 7 8 9 10 11 12 13 14 15 16 17 18 19 20 21 22
000
FTUS41 KRLX 260217 AAA
TAFPKB
TAF AMD
KPKB 260217Z 2602/2624 VRB03KT P6SM SCT035
     FM260400 34003KT 4SM BR SCT025
      TEMPO 2604/2607 6SM BR BKN025
     FM260800 00000KT 1 1/2SM BR BKN015
     FM261000 00000KT 1/4SM FG OVC001
     FM261400 00000KT P6SM SCT025
     FM262300 00000KT P6SM BKN050=

USA.gov is the U.S. government's official web portal to all federal, state and local government web resources and services.